createdAt,value
2019-02-20T00:01:50.872Z,90.75
2019-02-20T00:04:23.728Z,90.87
2019-02-20T00:06:56.085Z,92.40
2019-02-20T00:09:28.890Z,98.10
2019-02-20T00:12:01.039Z,81.70
2019-02-20T00:14:33.571Z,89.40
2019-02-20T00:17:06.116Z,90.75
2019-02-20T00:19:39.880Z,76.50
2019-02-20T00:22:12.301Z,75.70
2019-02-20T00:24:45.031Z,77.32
2019-02-20T00:27:17.517Z,72.17
2019-02-20T00:29:50.018Z,103.17
2019-02-20T00:32:22.822Z,99.42
2019-02-20T00:34:55.174Z,88.75
2019-02-20T00:37:27.869Z,87.35
2019-02-20T00:40:00.539Z,85.77
2019-02-20T00:42:33.162Z,89.97
2019-02-20T00:45:07.904Z,80.55
2019-02-20T00:47:42.227Z,75.62
2019-02-20T00:50:15.754Z,72.90
2019-02-20T00:52:50.103Z,68.70
2019-02-20T00:55:23.331Z,72.72
2019-02-20T00:57:55.734Z,73.57
2019-02-20T01:00:28.324Z,70.60
2019-02-20T01:03:00.862Z,76.37
2019-02-20T01:05:33.960Z,68.97
2019-02-20T01:08:06.252Z,66.30
2019-02-20T01:10:38.602Z,68.75
2019-02-20T01:13:11.079Z,69.10
2019-02-20T01:15:43.714Z,68.30
2019-02-20T01:18:16.049Z,64.32
2019-02-20T01:20:48.604Z,64.77
2019-02-20T01:23:21.761Z,59.33
2019-02-20T01:25:54.075Z,60.38
2019-02-20T01:28:26.375Z,60.80
2019-02-20T01:30:58.859Z,58.73
2019-02-20T01:33:32.352Z,65.42
2019-02-20T01:36:04.516Z,60.20
2019-02-20T01:38:37.142Z,60.40
2019-02-20T01:41:09.981Z,55.60
2019-02-20T01:43:42.468Z,57.78
2019-02-20T01:46:14.851Z,52.70
2019-02-20T01:48:47.194Z,62.62
2019-02-20T01:51:20.196Z,60.58
2019-02-20T01:53:52.424Z,54.90
2019-02-20T01:56:24.903Z,60.73
2019-02-20T01:58:57.112Z,54.00
2019-02-20T02:01:29.414Z,53.17
2019-02-20T02:04:02.143Z,50.65
2019-02-20T02:06:34.464Z,53.63
2019-02-20T02:09:08.486Z,53.17
2019-02-20T02:11:41.288Z,58.52
2019-02-20T02:14:13.952Z,59.10
2019-02-20T02:16:46.476Z,53.42
2019-02-20T02:19:18.703Z,54.65
2019-02-20T02:21:51.054Z,62.20
2019-02-20T02:24:23.241Z,53.68
2019-02-20T02:26:56.228Z,61.25
2019-02-20T02:29:28.624Z,56.00
2019-02-20T02:32:01.121Z,53.75
2019-02-20T02:34:33.649Z,52.80
2019-02-20T02:37:06.074Z,54.18
2019-02-20T02:39:39.244Z,53.28
2019-02-20T02:42:11.645Z,57.83
2019-02-20T02:44:44.505Z,53.90
2019-02-20T02:47:16.724Z,49.93
2019-02-20T02:49:49.248Z,54.03
2019-02-20T02:52:22.145Z,49.05
2019-02-20T02:54:55.405Z,42.48
2019-02-20T02:57:27.926Z,48.80
2019-02-20T03:00:00.302Z,53.95
2019-02-20T03:02:33.259Z,43.33
2019-02-20T03:05:08.289Z,44.77
2019-02-20T03:07:40.769Z,44.90
2019-02-20T03:10:13.100Z,42.88
2019-02-20T03:12:46.294Z,45.92
2019-02-20T03:15:18.659Z,45.63
2019-02-20T03:17:50.991Z,49.53
2019-02-20T03:20:23.270Z,39.40
2019-02-20T03:22:55.803Z,41.28
2019-02-20T03:25:28.579Z,40.45
2019-02-20T03:28:01.569Z,45.40
2019-02-20T03:30:34.360Z,43.38
2019-02-20T03:33:06.671Z,38.85
2019-02-20T03:35:40.020Z,33.18
2019-02-20T03:38:12.486Z,39.80
2019-02-20T03:40:45.256Z,35.45
2019-02-20T03:43:18.053Z,38.80
2019-02-20T03:45:50.804Z,35.90
2019-02-20T03:48:23.054Z,29.37
2019-02-20T03:50:55.594Z,33.30
2019-02-20T03:53:28.345Z,31.40
2019-02-20T03:56:02.178Z,31.25
2019-02-20T03:58:34.681Z,29.45
2019-02-20T04:01:07.148Z,34.30
2019-02-20T04:03:39.635Z,34.27
2019-02-20T04:06:12.196Z,28.67
2019-02-20T04:08:44.788Z,32.00
2019-02-20T04:11:17.247Z,27.00
2019-02-20T04:13:50.317Z,27.45
2019-02-20T04:16:22.693Z,27.50
2019-02-20T04:18:55.023Z,30.90
2019-02-20T04:21:27.280Z,28.90
2019-02-20T04:24:02.351Z,26.82
2019-02-20T04:26:33.309Z,30.40
2019-02-20T04:29:06.294Z,29.12
2019-02-20T04:31:39.703Z,27.20
2019-02-20T04:34:11.947Z,28.07
2019-02-20T04:36:46.175Z,29.40
2019-02-20T04:39:18.562Z,27.55
2019-02-20T04:41:50.973Z,29.60
2019-02-20T04:44:23.336Z,27.73
2019-02-20T04:46:55.861Z,33.50
2019-02-20T04:49:27.992Z,27.58
2019-02-20T04:52:00.497Z,25.32
2019-02-20T04:54:32.840Z,25.57
2019-02-20T04:57:05.159Z,26.73
2019-02-20T04:59:38.102Z,26.95
2019-02-20T05:02:10.385Z,28.05
2019-02-20T05:04:43.250Z,23.70
2019-02-20T05:07:15.830Z,23.55
2019-02-20T05:09:48.178Z,25.82
2019-02-20T05:12:20.749Z,25.70
2019-02-20T05:14:53.298Z,22.77
2019-02-20T05:17:26.190Z,27.02
2019-02-20T05:19:58.744Z,23.57
2019-02-20T05:22:31.223Z,24.92
2019-02-20T05:25:04.073Z,24.00
2019-02-20T05:27:36.471Z,27.05
2019-02-20T05:30:10.172Z,25.15
2019-02-20T05:32:42.848Z,24.75
2019-02-20T05:35:15.271Z,24.85
2019-02-20T05:37:47.643Z,24.67
2019-02-20T05:40:20.072Z,28.87
2019-02-20T05:42:52.469Z,23.77
2019-02-20T05:45:24.820Z,24.32
2019-02-20T05:47:57.427Z,24.35
2019-02-20T05:50:30.060Z,27.73
2019-02-20T05:53:02.531Z,25.92
2019-02-20T05:55:35.295Z,25.25
2019-02-20T05:58:07.713Z,25.00
2019-02-20T06:00:40.316Z,23.02
2019-02-20T06:03:12.847Z,24.63
2019-02-20T06:05:45.061Z,23.18
2019-02-20T06:08:17.483Z,27.25
2019-02-20T06:10:49.711Z,23.42
2019-02-20T06:13:22.323Z,24.85
2019-02-20T06:15:54.780Z,25.00
2019-02-20T06:18:27.335Z,23.80
2019-02-20T06:20:59.569Z,22.85
2019-02-20T06:23:31.998Z,22.50
2019-02-20T06:26:04.650Z,21.93
2019-02-20T06:28:37.116Z,22.50
2019-02-20T06:31:10.215Z,26.85
2019-02-20T06:33:42.656Z,21.73
2019-02-20T06:36:15.074Z,20.55
2019-02-20T06:38:47.419Z,23.02
2019-02-20T06:41:20.020Z,23.80
2019-02-20T06:43:52.791Z,23.05
2019-02-20T06:46:25.277Z,20.17
2019-02-20T06:48:57.826Z,25.15
2019-02-20T06:51:30.484Z,24.98
2019-02-20T06:54:02.781Z,22.17
2019-02-20T06:56:35.985Z,20.60
2019-02-20T06:59:08.428Z,20.80
2019-02-20T07:01:42.527Z,23.62
2019-02-20T07:04:14.943Z,24.27
2019-02-20T07:06:50.197Z,21.10
2019-02-20T07:09:24.984Z,21.62
2019-02-20T07:11:59.633Z,22.52
2019-02-20T07:14:34.548Z,24.07
2019-02-20T07:17:09.408Z,22.05
2019-02-20T07:19:44.373Z,22.32
2019-02-20T07:22:20.850Z,22.87
2019-02-20T07:25:02.899Z,23.47
2019-02-20T07:27:31.601Z,22.37
2019-02-20T07:30:05.250Z,21.30
2019-02-20T07:32:37.761Z,20.95
2019-02-20T07:35:11.068Z,28.32
2019-02-20T07:37:43.492Z,19.80
2019-02-20T07:40:16.211Z,21.55
2019-02-20T07:42:48.904Z,19.82
2019-02-20T07:45:21.331Z,21.27
2019-02-20T07:47:53.805Z,20.30
2019-02-20T07:50:26.088Z,24.87
2019-02-20T07:52:58.285Z,23.85
2019-02-20T07:55:30.690Z,19.95
2019-02-20T07:58:03.206Z,38.98
2019-02-20T08:00:35.827Z,21.05
2019-02-20T08:03:08.439Z,21.57
2019-02-20T08:05:40.842Z,21.12
2019-02-20T08:08:13.193Z,21.97
2019-02-20T08:10:46.830Z,20.62
2019-02-20T08:13:20.103Z,19.62
2019-02-20T08:15:52.523Z,25.25
2019-02-20T08:18:24.848Z,21.33
2019-02-20T08:20:57.072Z,23.15
2019-02-20T08:23:29.592Z,23.00
2019-02-20T08:26:03.096Z,24.27
2019-02-20T08:28:35.286Z,19.40
2019-02-20T08:31:07.818Z,21.93
2019-02-20T08:33:40.451Z,21.27
2019-02-20T08:36:12.986Z,21.27
2019-02-20T08:38:46.013Z,19.90
2019-02-20T08:41:18.289Z,22.37
2019-02-20T08:43:50.517Z,19.65
2019-02-20T08:46:22.773Z,21.60
2019-02-20T08:48:54.931Z,23.32
2019-02-20T08:51:27.881Z,21.75
2019-02-20T08:54:00.249Z,24.55
2019-02-20T08:56:32.685Z,25.10
2019-02-20T08:59:04.972Z,19.23
2019-02-20T09:01:38.861Z,20.77
2019-02-20T09:04:11.383Z,21.68
2019-02-20T09:06:43.738Z,21.33
2019-02-20T09:09:16.491Z,20.68
2019-02-20T09:11:48.895Z,21.70
2019-02-20T09:14:21.203Z,22.75
2019-02-20T09:16:53.414Z,20.95
2019-02-20T09:19:26.703Z,22.13
2019-02-20T09:21:59.064Z,16.30
2019-02-20T09:24:31.435Z,19.87
2019-02-20T09:27:04.001Z,22.87
2019-02-20T09:29:36.486Z,18.48
2019-02-20T09:32:09.027Z,24.40
2019-02-20T09:34:41.426Z,18.17
2019-02-20T09:37:13.814Z,18.82
2019-02-20T09:39:46.792Z,17.30
2019-02-20T09:42:19.295Z,19.27
2019-02-20T09:44:52.109Z,17.17
2019-02-20T09:47:24.888Z,20.85
2019-02-20T09:49:57.502Z,20.08
2019-02-20T09:52:29.748Z,17.65
2019-02-20T09:55:02.395Z,16.70
2019-02-20T09:57:34.717Z,18.98
2019-02-20T10:00:09.828Z,16.73
2019-02-20T10:02:42.775Z,17.50
2019-02-20T10:05:15.080Z,16.37
2019-02-20T10:07:47.711Z,17.15
2019-02-20T10:10:20.254Z,18.37
2019-02-20T10:12:52.612Z,21.37
2019-02-20T10:15:25.352Z,22.02
2019-02-20T10:17:57.722Z,21.42
2019-02-20T10:20:30.193Z,21.62
2019-02-20T10:23:02.346Z,24.47
2019-02-20T10:25:34.729Z,18.48
2019-02-20T10:28:07.286Z,20.45
2019-02-20T10:30:39.977Z,19.17
2019-02-20T10:33:12.535Z,25.35
2019-02-20T10:35:45.067Z,23.12
2019-02-20T10:38:17.830Z,21.70
2019-02-20T10:40:51.291Z,22.37
2019-02-20T10:43:23.579Z,23.57
2019-02-20T10:45:55.711Z,19.80
2019-02-20T10:48:27.937Z,20.92
2019-02-20T10:51:00.558Z,32.75
2019-02-20T10:53:33.240Z,24.30
2019-02-20T10:56:09.354Z,25.80
2019-02-20T10:58:39.123Z,22.80
2019-02-20T11:01:12.523Z,25.97
2019-02-20T11:03:44.772Z,25.40
2019-02-20T11:06:17.658Z,26.75
2019-02-20T11:08:50.525Z,25.48
2019-02-20T11:11:22.729Z,41.25
2019-02-20T11:13:55.410Z,38.10
2019-02-20T11:16:27.825Z,41.95
2019-02-20T11:19:00.242Z,42.15
2019-02-20T11:21:32.728Z,51.08
2019-02-20T11:24:05.293Z,51.45
2019-02-20T11:26:50.255Z,45.50
2019-02-20T11:29:11.362Z,46.08
2019-02-20T11:31:44.254Z,44.05
2019-02-20T11:34:16.404Z,35.60
2019-02-20T11:36:49.463Z,40.83
2019-02-20T11:39:21.885Z,37.20
2019-02-20T11:41:54.114Z,123.22
2019-02-20T11:44:27.192Z,39.95
2019-02-20T11:46:59.653Z,36.50
2019-02-20T11:49:32.140Z,33.83
2019-02-20T11:52:04.561Z,40.80
2019-02-20T11:54:37.283Z,33.60
2019-02-20T11:57:09.780Z,33.08
2019-02-20T11:59:42.038Z,34.35
2019-02-20T12:02:14.494Z,32.85
2019-02-20T12:04:48.074Z,37.42
2019-02-20T12:07:20.417Z,29.67
2019-02-20T12:09:54.453Z,32.73
2019-02-20T12:12:26.392Z,37.75
2019-02-20T12:14:58.739Z,38.42
2019-02-20T12:17:31.275Z,36.60
2019-02-20T12:20:03.580Z,58.35
2019-02-20T12:22:35.848Z,53.80
2019-02-20T12:25:10.068Z,54.33
2019-02-20T12:27:42.596Z,57.00
2019-02-20T12:30:15.227Z,62.25
2019-02-20T12:32:48.063Z,84.42
2019-02-20T12:35:20.410Z,84.32
2019-02-20T12:37:52.544Z,82.95
2019-02-20T12:40:25.995Z,81.90
2019-02-20T12:42:59.064Z,79.27
2019-02-20T12:45:31.968Z,89.55
2019-02-20T12:48:04.096Z,80.38
2019-02-20T12:50:36.416Z,79.32
2019-02-20T12:53:08.878Z,72.03
2019-02-20T12:55:41.704Z,65.25
2019-02-20T12:58:14.525Z,63.45
2019-02-20T13:00:47.174Z,67.45
2019-02-20T13:03:19.384Z,69.27
2019-02-20T13:05:53.158Z,71.55
2019-02-20T13:08:25.427Z,64.55
2019-02-20T13:10:58.116Z,101.65
2019-02-20T13:13:30.419Z,101.02
2019-02-20T13:16:09.397Z,124.20
2019-02-20T13:18:36.663Z,130.43
2019-02-20T13:21:10.972Z,117.57
2019-02-20T13:23:45.338Z,119.57
2019-02-20T13:26:17.135Z,120.17
2019-02-20T13:28:49.484Z,118.17
2019-02-20T13:31:21.699Z,104.38
2019-02-20T13:33:54.067Z,109.32
2019-02-20T13:36:26.287Z,106.75
2019-02-20T13:38:58.701Z,111.03
2019-02-20T13:41:30.943Z,114.20
2019-02-20T13:44:03.228Z,110.37
2019-02-20T13:46:35.533Z,102.38
2019-02-20T13:49:07.785Z,83.70
2019-02-20T13:51:40.614Z,87.45
2019-02-20T13:54:13.073Z,85.47
2019-02-20T13:56:45.422Z,86.28
2019-02-20T13:59:17.663Z,77.67
2019-02-20T14:01:49.904Z,77.97
2019-02-20T14:04:22.455Z,72.67
2019-02-20T14:06:55.016Z,74.58
2019-02-20T14:09:27.268Z,76.33
2019-02-20T14:11:59.498Z,75.57
2019-02-20T14:14:32.139Z,71.97
2019-02-20T14:17:04.760Z,72.60
2019-02-20T14:19:37.388Z,65.47
2019-02-20T14:22:10.109Z,73.15
2019-02-20T14:24:42.842Z,68.00
2019-02-20T14:27:15.096Z,84.77
2019-02-20T14:29:47.950Z,71.02
2019-02-20T14:32:20.619Z,68.83
2019-02-20T14:34:52.795Z,72.70
2019-02-20T14:37:25.578Z,83.03
2019-02-20T14:39:58.329Z,101.62
2019-02-20T14:42:30.794Z,101.62
2019-02-20T14:45:04.050Z,100.30
2019-02-20T14:47:37.263Z,89.83
2019-02-20T14:50:12.092Z,93.03
2019-02-20T14:52:45.224Z,99.03
2019-02-20T14:55:18.762Z,104.40
2019-02-20T14:57:51.316Z,111.97
2019-02-20T15:00:24.391Z,107.95
2019-02-20T15:02:56.885Z,101.30
2019-02-20T15:05:30.491Z,93.20
2019-02-20T15:08:02.903Z,88.42
2019-02-20T15:10:35.493Z,81.05
2019-02-20T15:13:08.175Z,86.75
2019-02-20T15:15:40.526Z,75.35
2019-02-20T15:18:13.272Z,76.22
2019-02-20T15:20:45.895Z,73.67
2019-02-20T15:23:18.687Z,73.70
2019-02-20T15:25:51.237Z,70.62
2019-02-20T15:28:24.951Z,82.53
2019-02-20T15:30:57.308Z,82.75
2019-02-20T15:33:30.177Z,78.85
2019-02-20T15:36:02.978Z,81.32
2019-02-20T15:38:35.397Z,84.07
2019-02-20T15:41:08.956Z,66.20
2019-02-20T15:43:41.311Z,87.08
2019-02-20T15:46:13.654Z,85.38
2019-02-20T15:48:46.314Z,87.72
2019-02-20T15:51:18.975Z,95.35
2019-02-20T15:53:51.443Z,90.38
2019-02-20T15:56:23.994Z,87.78
2019-02-20T15:58:56.397Z,81.50
2019-02-20T16:01:28.822Z,80.00
2019-02-20T16:04:01.303Z,83.60
2019-02-20T16:06:33.709Z,89.30
2019-02-20T16:09:06.518Z,77.05
2019-02-20T16:11:40.196Z,79.10
2019-02-20T16:14:12.635Z,74.27
2019-02-20T16:16:45.302Z,83.37
2019-02-20T16:19:18.099Z,76.15
2019-02-20T16:21:50.672Z,80.03
2019-02-20T16:24:23.453Z,72.15
2019-02-20T16:26:56.166Z,79.77
2019-02-20T16:29:29.002Z,79.27
2019-02-20T16:32:01.743Z,72.78
2019-02-20T16:34:34.009Z,75.87
2019-02-20T16:37:06.913Z,73.22
2019-02-20T16:39:39.646Z,79.85
2019-02-20T16:42:12.593Z,78.52
2019-02-20T16:44:45.726Z,78.52
2019-02-20T16:47:18.237Z,77.05
2019-02-20T16:49:50.453Z,75.22
2019-02-20T16:52:23.198Z,80.50
2019-02-20T16:54:55.610Z,73.72
2019-02-20T16:57:27.861Z,77.80
2019-02-20T17:00:00.301Z,86.53
2019-02-20T17:02:34.231Z,78.55
2019-02-20T17:05:13.381Z,74.72
2019-02-20T17:07:43.368Z,80.87
2019-02-20T17:10:16.916Z,80.53
2019-02-20T17:12:49.591Z,81.92
2019-02-20T17:15:22.099Z,80.28
2019-02-20T17:17:54.720Z,80.70
2019-02-20T17:20:27.027Z,75.45
2019-02-20T17:22:59.678Z,79.47
2019-02-20T17:25:32.126Z,77.12
2019-02-20T17:28:06.097Z,81.92
2019-02-20T17:30:39.274Z,81.72
2019-02-20T17:33:11.839Z,83.07
2019-02-20T17:35:44.265Z,82.17
2019-02-20T17:38:16.506Z,73.65
2019-02-20T17:40:49.897Z,82.00
2019-02-20T17:43:22.597Z,72.85
2019-02-20T17:45:54.848Z,76.35
2019-02-20T17:48:27.255Z,75.28
2019-02-20T17:50:59.635Z,73.15
2019-02-20T17:53:32.233Z,71.62
2019-02-20T17:56:04.566Z,72.72
2019-02-20T17:58:36.807Z,75.47
2019-02-20T18:01:11.207Z,77.03
2019-02-20T18:03:44.017Z,82.95
2019-02-20T18:06:16.285Z,85.57
2019-02-20T18:08:48.821Z,75.45
2019-02-20T18:11:21.267Z,75.10
2019-02-20T18:13:53.637Z,86.80
2019-02-20T18:16:26.011Z,74.87
2019-02-20T18:18:58.604Z,81.37
2019-02-20T18:21:31.196Z,78.15
2019-02-20T18:24:05.164Z,71.35
2019-02-20T18:26:37.688Z,79.70
2019-02-20T18:29:10.281Z,79.03
2019-02-20T18:31:42.427Z,85.12
2019-02-20T18:34:14.678Z,87.08
2019-02-20T18:36:47.558Z,76.17
2019-02-20T18:39:20.192Z,77.80
2019-02-20T18:41:52.632Z,80.40
2019-02-20T18:44:24.940Z,75.90
2019-02-20T18:46:57.617Z,78.05
2019-02-20T18:49:30.499Z,73.45
2019-02-20T18:52:03.538Z,74.87
2019-02-20T18:54:35.783Z,74.97
2019-02-20T18:57:08.126Z,82.27
2019-02-20T18:59:40.686Z,75.25
2019-02-20T19:02:13.191Z,76.92
2019-02-20T19:04:45.403Z,79.50
2019-02-20T19:07:17.798Z,80.45
2019-02-20T19:09:50.862Z,88.45
2019-02-20T19:12:25.810Z,82.42
2019-02-20T19:15:01.034Z,85.10
2019-02-20T19:17:36.223Z,87.88
2019-02-20T19:20:12.100Z,77.62
2019-02-20T19:22:47.273Z,85.80
2019-02-20T19:25:22.108Z,79.30
2019-02-20T19:27:57.250Z,83.37
2019-02-20T19:30:32.324Z,82.65
2019-02-20T19:33:07.466Z,79.80
2019-02-20T19:35:41.979Z,74.27
2019-02-20T19:38:17.131Z,81.35
2019-02-20T19:40:52.054Z,78.52
2019-02-20T19:43:27.692Z,79.58
2019-02-20T19:46:04.022Z,85.28
2019-02-20T19:48:38.700Z,76.67
2019-02-20T19:51:13.373Z,80.35
2019-02-20T19:53:48.737Z,75.62
2019-02-20T19:56:23.442Z,76.00
2019-02-20T19:58:58.937Z,77.47
2019-02-20T20:01:34.080Z,85.57
2019-02-20T20:04:09.896Z,80.47
2019-02-20T20:06:44.949Z,75.57
2019-02-20T20:09:20.230Z,73.02
2019-02-20T20:11:55.494Z,76.28
2019-02-20T20:14:30.579Z,78.20
2019-02-20T20:17:05.073Z,77.65
2019-02-20T20:19:40.091Z,77.15
2019-02-20T20:22:14.737Z,85.97
2019-02-20T20:24:49.623Z,78.22
2019-02-20T20:27:24.831Z,76.70
2019-02-20T20:29:59.763Z,76.80
2019-02-20T20:32:36.508Z,78.33
2019-02-20T20:35:11.115Z,81.85
2019-02-20T20:37:46.242Z,76.15
2019-02-20T20:40:20.965Z,80.92
2019-02-20T20:42:55.967Z,75.15
2019-02-20T20:45:30.744Z,70.62
2019-02-20T20:48:11.801Z,76.95
2019-02-20T20:50:41.218Z,81.47
2019-02-20T20:53:16.412Z,79.50
2019-02-20T20:55:51.482Z,75.92
2019-02-20T20:58:26.580Z,75.17
2019-02-20T21:01:01.248Z,83.55
2019-02-20T21:03:36.651Z,81.65
2019-02-20T21:06:11.581Z,81.75
2019-02-20T21:08:46.084Z,80.87
2019-02-20T21:11:21.145Z,81.90
2019-02-20T21:13:56.384Z,86.12
2019-02-20T21:16:31.934Z,85.22
2019-02-20T21:19:06.418Z,82.30
2019-02-20T21:21:41.078Z,93.47
2019-02-20T21:24:15.755Z,94.45
2019-02-20T21:26:50.606Z,92.95
2019-02-20T21:29:28.546Z,91.32
2019-02-20T21:32:02.552Z,89.25
2019-02-20T21:34:37.684Z,94.07
2019-02-20T21:37:12.803Z,90.92
2019-02-20T21:39:47.360Z,91.80
2019-02-20T21:42:21.987Z,95.47
2019-02-20T21:44:57.104Z,92.08
2019-02-20T21:47:32.244Z,92.90
2019-02-20T21:50:07.182Z,85.20
2019-02-20T21:52:42.013Z,85.65
2019-02-20T21:55:17.552Z,82.45
2019-02-20T21:57:51.967Z,85.90
2019-02-20T22:00:27.849Z,91.12
2019-02-20T22:03:03.278Z,97.40
2019-02-20T22:05:38.306Z,90.05
2019-02-20T22:08:13.444Z,88.97
2019-02-20T22:10:48.160Z,93.22
2019-02-20T22:13:22.903Z,82.75
2019-02-20T22:15:57.837Z,90.95
2019-02-20T22:18:32.328Z,86.10
2019-02-20T22:21:06.975Z,88.17
2019-02-20T22:23:41.828Z,86.53
2019-02-20T22:26:16.692Z,87.20
2019-02-20T22:28:51.219Z,88.22
2019-02-20T22:31:26.160Z,86.72
2019-02-20T22:34:01.339Z,84.70
2019-02-20T22:36:36.311Z,86.47
2019-02-20T22:39:11.412Z,84.50
2019-02-20T22:41:46.546Z,83.60
2019-02-20T22:44:22.099Z,85.83
2019-02-20T22:46:56.550Z,90.50
2019-02-20T22:49:31.347Z,92.92
2019-02-20T22:52:06.164Z,89.17
2019-02-20T22:54:41.107Z,87.47
2019-02-20T22:57:15.879Z,98.05
2019-02-20T23:00:01.225Z,96.05
2019-02-20T23:02:26.325Z,95.35
2019-02-20T23:05:00.994Z,88.33
2019-02-20T23:07:36.560Z,83.75
2019-02-20T23:10:11.288Z,86.92
2019-02-20T23:12:46.505Z,87.37
2019-02-20T23:15:19.136Z,87.40
2019-02-20T23:17:51.824Z,86.57
2019-02-20T23:20:23.969Z,89.37
2019-02-20T23:22:57.124Z,94.10
2019-02-20T23:25:29.680Z,89.40
2019-02-20T23:28:02.013Z,86.42
2019-02-20T23:30:34.257Z,89.40
2019-02-20T23:33:07.075Z,85.90
2019-02-20T23:35:39.552Z,81.87
2019-02-20T23:38:13.328Z,90.00
2019-02-20T23:40:46.037Z,90.87
2019-02-20T23:43:18.811Z,87.15
2019-02-20T23:45:51.619Z,89.95
2019-02-20T23:48:24.200Z,92.57
2019-02-20T23:50:56.548Z,92.80
2019-02-20T23:53:29.267Z,95.90
2019-02-20T23:56:01.703Z,94.17
2019-02-20T23:58:34.439Z,90.10
